Observations for ALBENGA, Italy (LIMG)

LIMG 091650Z 00000KT CAVOK 08/06 Q1011  
LIMG 091550Z 25003KT CAVOK 10/08 Q1009  
LIMG 091450Z 00000KT CAVOK 15/10 Q1009  
LIMG 091350Z 12005KT CAVOK 16/10 Q1008  
LIMG 091250Z 12006KT CAVOK 16/10 Q1007  
LIMG 091150Z 13005KT CAVOK 15/09 Q1007  
LIMG 091050Z 00000KT CAVOK 14/08 Q1008  
LIMG 090950Z 00000KT CAVOK 11/06 Q1009  
LIMG 090850Z 23005KT CAVOK 08/04 Q1009  
LIMG 090750Z 26004KT CAVOK 03/02 Q1009